createdAt,value
2022-08-12T00:03:50.712Z,2.43
2022-08-12T00:09:08.583Z,2.43
2022-08-12T00:14:29.372Z,3.03
2022-08-12T00:19:46.762Z,2.67
2022-08-12T00:25:04.448Z,2.70
2022-08-12T00:30:26.445Z,2.70
2022-08-12T00:35:44.482Z,2.23
2022-08-12T00:41:02.399Z,2.40
2022-08-12T00:46:23.540Z,2.50
2022-08-12T00:51:49.471Z,2.43
2022-08-12T00:56:57.547Z,2.13
2022-08-12T01:02:12.229Z,2.50
2022-08-12T01:07:35.789Z,3.07
2022-08-12T01:12:41.732Z,2.43
2022-08-12T01:17:49.669Z,2.67
2022-08-12T01:23:12.166Z,2.37
2022-08-12T01:28:23.011Z,2.23
2022-08-12T01:33:34.096Z,2.83
2022-08-12T01:38:40.515Z,2.70
2022-08-12T01:43:50.125Z,2.83
2022-08-12T01:49:08.236Z,2.40
2022-08-12T01:54:15.444Z,2.50
2022-08-12T01:59:43.120Z,2.80
2022-08-12T02:05:16.936Z,2.40
2022-08-12T02:10:52.041Z,2.87
2022-08-12T02:16:05.862Z,2.70
2022-08-12T02:21:27.087Z,2.50
2022-08-12T02:26:37.650Z,3.27
2022-08-12T02:31:47.789Z,2.87
2022-08-12T02:36:57.579Z,3.20
2022-08-12T02:42:09.522Z,2.50
2022-08-12T02:47:59.870Z,2.90
2022-08-12T02:52:44.909Z,2.70
2022-08-12T02:57:50.408Z,2.83
2022-08-12T03:03:03.315Z,3.13
2022-08-12T03:08:21.272Z,3.27
2022-08-12T03:13:41.348Z,3.60
2022-08-12T03:18:49.487Z,2.70
2022-08-12T03:23:57.450Z,3.47
2022-08-12T03:29:06.912Z,3.70
2022-08-12T03:34:16.555Z,3.37
2022-08-12T03:39:36.581Z,3.20
2022-08-12T03:44:57.735Z,3.80
2022-08-12T03:50:19.647Z,3.27
2022-08-12T03:55:37.238Z,4.30
2022-08-12T04:00:42.410Z,3.23
2022-08-12T04:05:56.137Z,3.13
2022-08-12T04:11:14.570Z,3.37
2022-08-12T04:16:20.406Z,3.83
2022-08-12T04:21:28.018Z,3.40
2022-08-12T04:26:33.105Z,2.90
2022-08-12T04:31:40.715Z,3.13
2022-08-12T04:36:49.155Z,3.07
2022-08-12T04:41:58.154Z,3.33
2022-08-12T04:47:04.142Z,3.53
2022-08-12T04:52:12.413Z,2.53
2022-08-12T04:57:17.290Z,3.17
2022-08-12T05:02:23.415Z,2.90
2022-08-12T05:07:31.453Z,3.00
2022-08-12T05:12:39.780Z,2.23
2022-08-12T05:17:45.427Z,2.53
2022-08-12T05:22:57.964Z,2.43
2022-08-12T05:28:06.064Z,2.60
2022-08-12T05:33:11.920Z,2.27
2022-08-12T05:38:33.802Z,2.10
2022-08-12T05:43:38.828Z,1.97
2022-08-12T05:48:44.606Z,2.67
2022-08-12T05:53:54.932Z,2.30
2022-08-12T05:59:01.952Z,2.00
2022-08-12T06:04:08.773Z,2.00
2022-08-12T06:09:16.806Z,2.20
2022-08-12T06:14:22.511Z,1.90
2022-08-12T06:20:27.624Z,1.88
2022-08-12T06:25:00.777Z,1.55
2022-08-12T06:30:14.041Z,1.83
2022-08-12T06:35:48.463Z,2.13
2022-08-12T06:41:12.474Z,2.17
2022-08-12T06:46:17.439Z,2.13
2022-08-12T06:51:22.808Z,1.97
2022-08-12T06:57:00.230Z,1.20
2022-08-12T07:01:55.699Z,1.50
2022-08-12T07:07:00.808Z,1.37
2022-08-12T07:12:19.950Z,1.70
2022-08-12T07:17:25.050Z,1.73
2022-08-12T07:22:30.234Z,1.50
2022-08-12T07:27:44.206Z,2.03
2022-08-12T07:32:51.648Z,1.70
2022-08-12T07:37:57.740Z,1.80
2022-08-12T07:43:07.227Z,1.73
2022-08-12T07:48:12.606Z,1.50
2022-08-12T07:53:17.939Z,1.40
2022-08-12T07:58:29.437Z,2.00
2022-08-12T08:03:35.333Z,1.20
2022-08-12T08:08:54.567Z,1.90
2022-08-12T08:14:03.463Z,1.93
2022-08-12T08:19:08.718Z,1.20
2022-08-12T08:24:19.728Z,1.37
2022-08-12T08:29:29.296Z,1.00
2022-08-12T08:34:53.731Z,1.10
2022-08-12T08:40:20.489Z,1.30
2022-08-12T08:45:28.668Z,1.20
2022-08-12T08:50:35.791Z,1.13
2022-08-12T08:56:03.743Z,1.30
2022-08-12T09:01:11.467Z,1.40
2022-08-12T09:06:37.490Z,1.20
2022-08-12T09:17:24.244Z,1.30
2022-08-12T09:22:29.486Z,1.50
2022-08-12T09:28:03.492Z,1.20
2022-08-12T09:33:14.885Z,1.20
2022-08-12T09:38:27.809Z,1.40
2022-08-12T09:44:00.801Z,1.45
2022-08-12T09:49:13.370Z,1.43
2022-08-12T09:54:32.844Z,1.50
2022-08-12T10:00:12.798Z,1.20
2022-08-12T10:05:13.836Z,1.30
2022-08-12T10:10:25.017Z,1.50
2022-08-12T10:16:01.407Z,1.80
2022-08-12T10:21:01.660Z,1.50
2022-08-12T10:26:37.646Z,1.35
2022-08-12T10:32:01.648Z,1.40
2022-08-12T10:37:23.368Z,1.40
2022-08-12T10:42:54.440Z,1.60
2022-08-12T10:48:21.107Z,1.45
2022-08-12T10:53:44.007Z,1.40
2022-08-12T10:58:52.805Z,1.50
2022-08-12T11:04:23.068Z,1.30
2022-08-12T11:09:56.152Z,1.25
2022-08-12T11:14:53.670Z,1.23
2022-08-12T11:19:59.526Z,1.25
2022-08-12T11:25:11.983Z,1.20
2022-08-12T11:30:31.407Z,1.20
2022-08-12T11:35:38.878Z,1.45
2022-08-12T11:40:50.575Z,1.30
2022-08-12T11:45:56.813Z,1.35
2022-08-12T11:51:01.808Z,1.40
2022-08-12T11:56:11.618Z,1.60
2022-08-12T12:02:02.603Z,1.90
2022-08-12T12:06:49.762Z,1.50
2022-08-12T12:12:01.047Z,1.80
2022-08-12T12:17:09.219Z,1.42
2022-08-12T12:22:15.782Z,1.50
2022-08-12T12:28:04.408Z,1.65
2022-08-12T12:33:03.586Z,1.15
2022-08-12T12:38:12.317Z,1.10
2022-08-12T12:43:29.026Z,1.70
2022-08-12T12:48:45.530Z,1.20
2022-08-12T12:54:07.700Z,1.50
2022-08-12T12:59:54.662Z,1.23
2022-08-12T13:04:43.817Z,1.52
2022-08-12T13:09:51.922Z,1.40
2022-08-12T13:14:59.745Z,1.08
2022-08-12T13:20:05.649Z,1.35
2022-08-12T13:25:12.738Z,1.05
2022-08-12T13:30:23.871Z,1.35
2022-08-12T13:36:04.865Z,1.20
2022-08-12T13:40:58.913Z,1.20
2022-08-12T13:46:12.371Z,1.60
2022-08-12T13:51:24.164Z,1.40
2022-08-12T13:56:34.701Z,1.33
2022-08-12T14:01:42.566Z,1.00
2022-08-12T14:06:50.540Z,1.20
2022-08-12T14:11:59.136Z,1.17
2022-08-12T14:17:10.405Z,1.05
2022-08-12T14:22:17.399Z,1.23
2022-08-12T14:28:02.864Z,1.30
2022-08-12T14:32:56.182Z,1.35
2022-08-12T14:38:01.013Z,1.23
2022-08-12T14:43:06.747Z,1.35
2022-08-12T14:48:15.643Z,1.30
2022-08-12T14:59:20.299Z,0.93
2022-08-12T15:04:29.143Z,1.30
2022-08-12T15:09:34.310Z,0.98
2022-08-12T15:14:45.733Z,1.30
2022-08-12T15:20:28.374Z,1.02
2022-08-12T15:25:18.185Z,1.10
2022-08-12T15:30:27.029Z,1.20
2022-08-12T15:35:50.368Z,1.00
2022-08-12T15:41:00.053Z,1.10
2022-08-12T15:46:06.442Z,1.42
2022-08-12T15:51:14.579Z,1.50
2022-08-12T15:56:22.293Z,1.20
2022-08-12T16:01:35.574Z,1.23
2022-08-12T16:07:03.680Z,1.00
2022-08-12T16:12:12.124Z,1.05
2022-08-12T16:17:17.865Z,0.93
2022-08-12T16:22:33.560Z,1.02
2022-08-12T16:27:38.986Z,1.08
2022-08-12T16:32:46.463Z,1.27
2022-08-12T16:38:25.014Z,1.00
2022-08-12T16:43:30.281Z,0.90
2022-08-12T16:48:39.563Z,1.20
2022-08-12T16:53:47.126Z,1.00
2022-08-12T16:58:53.649Z,0.93
2022-08-12T17:04:08.189Z,0.95
2022-08-12T17:09:18.471Z,0.85
2022-08-12T17:14:25.256Z,1.05
2022-08-12T17:20:30.467Z,1.30
2022-08-12T17:25:14.874Z,1.08
2022-08-12T17:30:20.002Z,1.13
2022-08-12T17:35:36.874Z,1.27
2022-08-12T17:40:49.280Z,1.20
2022-08-12T17:45:58.906Z,1.08
2022-08-12T17:51:15.580Z,1.40
2022-08-12T17:56:32.059Z,1.30
2022-08-12T18:01:37.903Z,1.52
2022-08-12T18:06:49.185Z,1.40
2022-08-12T18:12:11.565Z,1.42
2022-08-12T18:17:18.102Z,1.23
2022-08-12T18:22:30.548Z,1.40
2022-08-12T18:27:44.846Z,1.20
2022-08-12T18:32:58.286Z,1.30
2022-08-12T18:38:05.576Z,1.00
2022-08-12T18:43:16.750Z,1.70
2022-08-12T18:48:23.645Z,1.60
2022-08-12T18:54:07.504Z,1.65
2022-08-12T18:58:59.794Z,1.80
2022-08-12T19:04:07.011Z,2.47
2022-08-12T19:09:14.895Z,2.25
2022-08-12T19:14:29.734Z,2.13
2022-08-12T19:19:37.417Z,1.60
2022-08-12T19:24:59.904Z,2.03
2022-08-12T19:30:09.373Z,2.20
2022-08-12T19:40:40.002Z,2.80
2022-08-12T19:45:56.217Z,2.50
2022-08-12T19:51:08.806Z,2.60
2022-08-12T19:56:27.484Z,2.17
2022-08-12T20:02:01.311Z,2.60
2022-08-12T20:07:05.557Z,2.83
2022-08-12T20:12:18.153Z,2.33
2022-08-12T20:17:35.981Z,2.87
2022-08-12T20:22:43.465Z,2.97
2022-08-12T20:28:02.750Z,2.30
2022-08-12T20:33:19.041Z,2.20
2022-08-12T20:38:28.390Z,2.83
2022-08-12T20:43:37.661Z,2.77
2022-08-12T20:48:54.973Z,2.50
2022-08-12T20:54:05.149Z,2.83
2022-08-12T20:59:14.656Z,3.17
2022-08-12T21:04:40.222Z,2.73
2022-08-12T21:09:51.073Z,2.40
2022-08-12T21:15:18.055Z,2.10
2022-08-12T21:20:28.849Z,2.20
2022-08-12T21:25:35.796Z,2.50
2022-08-12T21:31:10.592Z,2.47
2022-08-12T21:36:22.755Z,2.53
2022-08-12T21:41:37.835Z,2.70
2022-08-12T21:46:53.585Z,2.53
2022-08-12T21:52:03.639Z,2.40
2022-08-12T21:57:10.229Z,3.03
2022-08-12T22:02:31.112Z,2.90
2022-08-12T22:07:55.039Z,2.67
2022-08-12T22:13:03.166Z,2.70
2022-08-12T22:18:11.239Z,2.60
2022-08-12T22:23:21.570Z,2.90
2022-08-12T22:28:46.067Z,2.77
2022-08-12T22:33:59.682Z,2.83
2022-08-12T22:39:11.716Z,3.00
2022-08-12T22:44:33.180Z,2.93
2022-08-12T22:49:59.882Z,2.50
2022-08-12T22:55:10.552Z,2.73
2022-08-12T23:00:24.667Z,3.07
2022-08-12T23:05:36.826Z,2.77
2022-08-12T23:11:06.185Z,2.77
2022-08-12T23:16:28.563Z,2.97
2022-08-12T23:22:04.145Z,2.50
2022-08-12T23:27:18.219Z,2.40
2022-08-12T23:32:53.971Z,2.70
2022-08-12T23:37:54.568Z,3.07
2022-08-12T23:43:02.403Z,2.90
2022-08-12T23:48:08.689Z,2.60
2022-08-12T23:53:32.304Z,3.10
2022-08-12T23:58:42.151Z,3.10
